Time;durP1;ratioP1;P1;durP2;ratioP2;P2;SDS_P1;SDS_P2;PMS_P1;PMS_P2;Temp;Humidity;BMP_temperature;BMP_pressure;BME280_temperature;BME280_humidity;BME280_pressure;Samples;Min_cycle;Max_cycle;Signal;HPM_P1;HPM_P2
2022/09/03 00:01:37;;;;;;;2.63;2.20;;;12.20;99.90;;;;;;5076512;28;20238;-75
2022/09/03 00:04:16;;;;;;;3.40;2.20;;;12.20;99.90;;;;;;5077009;28;20198;-75
2022/09/03 00:07:00;;;;;;;2.93;2.20;;;12.20;99.90;;;;;;5075086;28;20216;-75
2022/09/03 00:09:32;;;;;;;3.03;2.10;;;12.30;99.90;;;;;;5075251;28;20294;-76
2022/09/03 00:12:08;;;;;;;3.93;2.20;;;12.30;99.90;;;;;;5074767;28;20234;-78
2022/09/03 00:14:42;;;;;;;2.47;2.20;;;12.40;99.90;;;;;;5075100;28;20713;-76
2022/09/03 00:17:15;;;;;;;4.57;2.10;;;12.50;99.90;;;;;;5074707;28;20207;-77
2022/09/03 00:19:53;;;;;;;3.33;2.23;;;12.50;99.90;;;;;;5074664;28;20584;-77
2022/09/03 00:22:25;;;;;;;6.77;2.27;;;12.50;99.90;;;;;;5075002;28;20609;-77
2022/09/03 00:25:02;;;;;;;3.63;2.43;;;12.50;99.90;;;;;;5074542;28;20195;-77
2022/09/03 00:27:38;;;;;;;3.70;2.17;;;12.60;99.90;;;;;;5074725;28;20262;-76
2022/09/03 00:30:11;;;;;;;2.63;2.30;;;12.60;99.90;;;;;;5074406;28;20211;-77
2022/09/03 00:32:48;;;;;;;4.40;2.40;;;12.60;99.90;;;;;;5074731;28;20202;-78
2022/09/03 00:35:24;;;;;;;3.30;2.10;;;12.60;99.90;;;;;;5074434;28;20664;-78
2022/09/03 00:37:54;;;;;;;2.53;2.30;;;12.70;99.90;;;;;;5074610;28;20203;-78
2022/09/03 00:40:55;;;;;;;3.23;2.10;;;12.70;99.90;;;;;;5074450;28;20249;-77
2022/09/03 00:43:35;;;;;;;4.23;2.17;;;12.70;99.90;;;;;;5074139;28;20195;-76
2022/09/03 00:46:12;;;;;;;2.37;1.90;;;12.80;99.90;;;;;;5074247;28;20752;-77
2022/09/03 00:49:00;;;;;;;4.83;1.97;;;12.80;99.90;;;;;;5074232;28;20242;-76
2022/09/03 00:51:39;;;;;;;3.57;2.00;;;12.80;99.90;;;;;;5074440;28;20192;-76
2022/09/03 00:54:17;;;;;;;2.50;1.93;;;12.80;99.90;;;;;;5074379;28;20595;-77
2022/09/03 00:56:50;;;;;;;5.53;2.33;;;12.80;99.90;;;;;;5074328;28;20211;-76
2022/09/03 00:59:30;;;;;;;3.33;2.10;;;12.80;99.90;;;;;;5073950;28;20207;-78
2022/09/03 01:02:11;;;;;;;3.10;2.20;;;12.80;99.90;;;;;;5074195;28;20249;-76
2022/09/03 01:04:58;;;;;;;4.03;2.10;;;12.80;99.90;;;;;;5073958;28;20203;-77
2022/09/03 01:07:42;;;;;;;3.00;2.10;;;12.80;99.90;;;;;;5089345;28;20218;-76
2022/09/03 01:10:24;;;;;;;3.20;2.10;;;12.80;99.90;;;;;;5092625;28;20254;-78
2022/09/03 01:13:00;;;;;;;4.37;2.20;;;12.80;99.90;;;;;;5076880;28;20246;-78
2022/09/03 01:15:34;;;;;;;2.30;2.07;;;12.80;99.90;;;;;;5094184;28;20285;-76
2022/09/03 01:18:16;;;;;;;2.27;2.07;;;12.80;99.90;;;;;;5094189;28;20214;-77
2022/09/03 01:20:53;;;;;;;2.30;2.00;;;12.80;99.90;;;;;;5079429;28;20289;-76
2022/09/03 01:23:43;;;;;;;3.00;2.20;;;12.80;99.90;;;;;;5093738;28;20193;-78
2022/09/03 01:26:28;;;;;;;2.07;1.97;;;12.80;99.90;;;;;;5094144;28;20195;-77
2022/09/03 01:29:10;;;;;;;3.57;2.10;;;12.80;99.90;;;;;;5094382;28;20297;-78
2022/09/03 01:31:49;;;;;;;3.07;2.10;;;12.90;99.90;;;;;;5093575;28;20202;-77
2022/09/03 01:34:29;;;;;;;2.20;1.97;;;12.90;99.90;;;;;;5093569;28;20227;-78
2022/09/03 01:37:11;;;;;;;3.00;2.03;;;12.90;99.90;;;;;;5093284;28;20281;-79
2022/09/03 01:39:55;;;;;;;3.10;1.90;;;12.90;99.90;;;;;;5093573;28;20191;-76
2022/09/03 01:42:32;;;;;;;2.80;2.10;;;12.90;99.90;;;;;;5093593;28;20582;-76
2022/09/03 01:45:20;;;;;;;7.77;2.37;;;12.90;99.90;;;;;;5093668;28;20219;-77
2022/09/03 01:48:01;;;;;;;2.27;2.00;;;12.90;99.90;;;;;;5093248;28;20241;-78
2022/09/03 01:50:39;;;;;;;4.77;2.10;;;12.90;99.90;;;;;;5093268;28;20233;-78
2022/09/03 01:53:26;;;;;;;2.30;2.10;;;12.90;99.90;;;;;;5093473;28;20272;-77
2022/09/03 01:56:12;;;;;;;2.30;2.10;;;12.90;99.90;;;;;;5093489;28;20264;-76
2022/09/03 01:58:44;;;;;;;2.87;2.00;;;12.90;99.90;;;;;;5093415;28;20195;-76
2022/09/03 02:01:19;;;;;;;5.63;2.23;;;12.90;99.90;;;;;;5093071;28;20233;-76
2022/09/03 02:03:48;;;;;;;3.43;2.17;;;12.80;99.90;;;;;;5093381;28;20209;-75
2022/09/03 02:06:19;;;;;;;7.20;2.30;;;12.80;99.90;;;;;;5092955;28;20241;-77
2022/09/03 02:08:47;;;;;;;4.37;2.20;;;12.80;99.90;;;;;;5092817;28;20668;-79
2022/09/03 02:11:15;;;;;;;2.43;2.10;;;12.80;99.90;;;;;;5093001;28;20300;-76
2022/09/03 02:13:47;;;;;;;2.67;1.93;;;12.70;99.90;;;;;;5093366;28;20210;-76
2022/09/03 02:16:23;;;;;;;2.53;2.17;;;12.70;99.90;;;;;;5093290;28;20272;-77
2022/09/03 02:18:55;;;;;;;3.63;2.27;;;12.70;99.90;;;;;;5092876;28;20244;-78
2022/09/03 02:21:27;;;;;;;4.47;2.50;;;12.60;99.90;;;;;;5093014;28;20187;-78
2022/09/03 02:24:00;;;;;;;3.77;2.00;;;12.60;99.90;;;;;;5093081;28;20195;-77
2022/09/03 02:26:29;;;;;;;2.57;2.03;;;12.50;99.90;;;;;;5092535;28;20242;-76
2022/09/03 02:28:58;;;;;;;4.00;2.20;;;12.50;99.90;;;;;;5092345;28;20314;-77
2022/09/03 02:31:27;;;;;;;2.50;2.30;;;12.40;99.90;;;;;;5092404;28;20233;-75
2022/09/03 02:33:57;;;;;;;5.60;2.30;;;12.40;99.90;;;;;;5092672;28;20214;-77
2022/09/03 02:36:31;;;;;;;2.60;2.13;;;12.40;99.90;;;;;;5092137;28;20208;-78
2022/09/03 02:39:00;;;;;;;3.13;2.40;;;12.30;99.90;;;;;;5092107;28;20680;-77
2022/09/03 02:41:31;;;;;;;3.90;2.33;;;12.30;99.90;;;;;;5092479;28;20289;-77
2022/09/03 02:44:04;;;;;;;2.30;2.10;;;12.20;99.90;;;;;;5092646;28;20202;-77
2022/09/03 02:46:39;;;;;;;2.90;2.50;;;12.20;99.90;;;;;;5092577;28;20218;-75
2022/09/03 02:49:08;;;;;;;2.77;2.17;;;12.20;99.90;;;;;;5092133;28;20226;-76
2022/09/03 02:51:39;;;;;;;5.07;2.50;;;12.20;99.90;;;;;;5092403;28;20615;-76
2022/09/03 02:54:11;;;;;;;4.97;2.60;;;12.10;99.90;;;;;;5092475;28;20316;-77
2022/09/03 02:56:42;;;;;;;3.20;2.50;;;12.10;99.90;;;;;;5092434;28;20207;-76
2022/09/03 02:59:11;;;;;;;4.43;2.50;;;12.10;99.90;;;;;;5091756;28;20209;-75
2022/09/03 03:01:40;;;;;;;2.87;2.17;;;12.10;99.90;;;;;;5092243;28;20242;-76
2022/09/03 03:04:14;;;;;;;4.47;2.53;;;12.10;99.90;;;;;;5092110;28;20306;-76
2022/09/03 03:06:49;;;;;;;2.73;2.43;;;12.00;99.90;;;;;;5092268;28;20260;-76
2022/09/03 03:09:18;;;;;;;4.13;2.47;;;12.00;99.90;;;;;;5091928;28;20274;-77
2022/09/03 03:11:48;;;;;;;3.50;2.70;;;11.90;99.90;;;;;;5092239;28;20666;-77
2022/09/03 03:14:17;;;;;;;3.53;2.50;;;11.90;99.90;;;;;;5092045;28;20572;-78
2022/09/03 03:16:46;;;;;;;3.47;2.60;;;11.90;99.90;;;;;;5092302;28;20206;-76
2022/09/03 03:19:15;;;;;;;4.10;2.77;;;11.80;99.90;;;;;;5075291;28;20207;-79
2022/09/03 03:21:43;;;;;;;3.60;2.80;;;11.80;99.90;;;;;;5071915;28;20234;-76
2022/09/03 03:24:11;;;;;;;4.77;2.60;;;11.80;99.90;;;;;;5072046;28;20235;-77
2022/09/03 03:26:40;;;;;;;6.13;2.67;;;11.70;99.90;;;;;;5071617;28;20302;-76
2022/09/03 03:29:19;;;;;;;4.23;2.50;;;11.70;99.90;;;;;;5071668;28;20216;-78
2022/09/03 03:31:49;;;;;;;3.53;2.57;;;11.70;99.90;;;;;;5071767;28;20572;-77
2022/09/03 03:34:17;;;;;;;3.67;2.70;;;11.70;99.90;;;;;;5074065;28;20238;-77
2022/09/03 03:36:46;;;;;;;4.23;2.67;;;11.80;99.90;;;;;;5075721;28;20253;-76
2022/09/03 03:39:15;;;;;;;3.30;2.70;;;11.70;99.90;;;;;;5075799;28;20204;-78
2022/09/03 03:41:43;;;;;;;3.37;2.60;;;11.70;99.90;;;;;;5075498;28;20229;-76
2022/09/03 03:44:12;;;;;;;3.73;2.70;;;11.70;99.90;;;;;;5075816;28;20220;-78
2022/09/03 03:46:42;;;;;;;3.17;2.60;;;11.70;99.90;;;;;;5075580;28;20203;-77
2022/09/03 03:49:15;;;;;;;4.50;2.73;;;11.70;99.90;;;;;;5075121;28;20381;-76
2022/09/03 03:51:43;;;;;;;3.63;2.73;;;11.70;99.90;;;;;;5075418;28;20187;-76
2022/09/03 03:54:11;;;;;;;3.07;2.60;;;11.60;99.90;;;;;;5075494;28;20302;-77
2022/09/03 03:56:44;;;;;;;3.20;2.70;;;11.60;99.90;;;;;;5075437;28;20202;-77
2022/09/03 03:59:22;;;;;;;3.63;2.70;;;11.60;99.90;;;;;;5077871;28;20202;-77
2022/09/03 04:01:50;;;;;;;4.43;2.70;;;11.50;99.90;;;;;;5079289;28;20238;-76
2022/09/03 04:04:20;;;;;;;5.10;2.73;;;11.50;99.90;;;;;;5095068;28;20303;-77
2022/09/03 04:06:48;;;;;;;3.93;2.43;;;11.50;99.90;;;;;;5095514;28;20207;-76
2022/09/03 04:09:16;;;;;;;3.23;2.80;;;11.40;99.90;;;;;;5095177;28;20330;-77
2022/09/03 04:11:45;;;;;;;4.67;2.90;;;11.40;99.90;;;;;;5095288;28;20266;-76
2022/09/03 04:14:13;;;;;;;5.60;2.70;;;11.40;99.90;;;;;;5095236;28;20207;-76
2022/09/03 04:16:41;;;;;;;4.67;3.00;;;11.40;99.90;;;;;;5095590;28;20271;-75
2022/09/03 04:19:10;;;;;;;4.00;2.93;;;11.40;99.90;;;;;;5094681;28;20672;-78
2022/09/03 04:21:39;;;;;;;3.73;2.90;;;11.40;99.90;;;;;;5095027;28;20306;-76
2022/09/03 04:24:08;;;;;;;3.27;2.60;;;11.40;99.90;;;;;;5095130;28;20210;-78
2022/09/03 04:26:36;;;;;;;3.53;2.97;;;11.30;99.90;;;;;;5094825;28;20268;-78
2022/09/03 04:29:06;;;;;;;4.60;3.00;;;11.30;99.90;;;;;;5094671;28;20868;-77
2022/09/03 04:31:37;;;;;;;3.53;2.97;;;11.30;99.90;;;;;;5094556;28;20256;-79
2022/09/03 04:34:05;;;;;;;4.93;2.97;;;11.20;99.90;;;;;;5094815;28;20211;-76
2022/09/03 04:36:33;;;;;;;3.70;3.00;;;11.20;99.90;;;;;;5094651;28;20213;-78
2022/09/03 04:39:05;;;;;;;4.70;2.80;;;11.20;99.90;;;;;;5100509;28;20224;-78
2022/09/03 04:41:34;;;;;;;4.43;3.30;;;11.10;99.90;;;;;;5095042;28;20282;-78
2022/09/03 04:44:06;;;;;;;4.23;2.93;;;11.10;99.90;;;;;;5094746;28;20625;-77
2022/09/03 04:46:39;;;;;;;5.90;3.47;;;11.00;99.90;;;;;;5077624;28;20298;-77
2022/09/03 04:49:09;;;;;;;4.53;3.60;;;11.00;99.90;;;;;;5094164;28;20219;-76
2022/09/03 04:51:38;;;;;;;4.10;2.83;;;11.00;99.90;;;;;;5094729;28;20286;-75
2022/09/03 04:54:09;;;;;;;4.30;3.00;;;11.00;99.90;;;;;;5094472;28;20680;-77
2022/09/03 04:56:39;;;;;;;6.67;3.57;;;11.00;99.90;;;;;;5094819;28;20253;-76
2022/09/03 04:59:09;;;;;;;4.10;3.27;;;11.00;99.90;;;;;;5094151;28;20237;-76
2022/09/03 05:01:38;;;;;;;5.13;3.30;;;11.00;99.90;;;;;;5094021;28;20253;-77
2022/09/03 05:04:08;;;;;;;5.33;3.50;;;11.00;99.90;;;;;;5094403;28;20246;-77
2022/09/03 05:06:37;;;;;;;4.53;3.27;;;11.00;99.90;;;;;;5094171;28;20294;-75
2022/09/03 05:09:06;;;;;;;4.47;2.90;;;11.00;99.90;;;;;;5093972;28;20273;-78
2022/09/03 05:11:36;;;;;;;4.73;3.10;;;11.10;99.90;;;;;;5094053;28;20314;-79
2022/09/03 05:14:10;;;;;;;5.83;3.20;;;11.20;99.90;;;;;;5093931;28;20530;-76
2022/09/03 05:16:39;;;;;;;4.97;3.17;;;11.30;99.90;;;;;;5082713;28;20200;-76
2022/09/03 05:19:09;;;;;;;3.87;2.80;;;11.30;99.90;;;;;;5090995;28;20299;-76
2022/09/03 05:21:37;;;;;;;5.27;3.00;;;11.40;99.90;;;;;;5094027;28;20218;-76
2022/09/03 05:24:06;;;;;;;4.07;2.80;;;11.50;99.90;;;;;;5093784;28;20286;-76
2022/09/03 05:26:38;;;;;;;5.60;3.27;;;11.70;99.90;;;;;;5096386;28;20304;-76
2022/09/03 05:29:07;;;;;;;4.03;3.00;;;11.80;99.90;;;;;;5108125;28;20238;-77
2022/09/03 05:31:38;;;;;;;5.40;2.70;;;11.90;99.90;;;;;;5093949;28;20213;-76
2022/09/03 05:34:06;;;;;;;6.60;2.97;;;12.10;99.90;;;;;;5093782;28;20206;-76
2022/09/03 05:36:37;;;;;;;5.00;2.80;;;12.20;99.90;;;;;;5093906;28;20213;-76
2022/09/03 05:39:05;;;;;;;3.30;2.67;;;12.30;99.90;;;;;;5093788;28;20268;-77
2022/09/03 05:41:35;;;;;;;3.70;2.67;;;12.50;99.90;;;;;;5093522;28;20214;-76
2022/09/03 05:44:04;;;;;;;5.80;2.63;;;12.50;99.90;;;;;;5093794;28;20570;-76
2022/09/03 05:46:36;;;;;;;4.23;2.60;;;12.60;99.90;;;;;;5093923;28;20236;-78
2022/09/03 05:49:06;;;;;;;4.43;2.80;;;12.60;99.90;;;;;;5093191;28;20302;-76
2022/09/03 05:51:38;;;;;;;4.73;3.00;;;12.70;99.90;;;;;;5093362;28;20298;-76
2022/09/03 05:54:15;;;;;;;4.30;2.73;;;12.80;99.90;;;;;;5093486;28;20233;-77
2022/09/03 05:56:47;;;;;;;4.23;2.60;;;12.90;99.90;;;;;;5092654;28;20187;-76
2022/09/03 05:59:16;;;;;;;2.90;2.50;;;12.90;99.90;;;;;;5092794;28;20199;-77
2022/09/03 06:01:45;;;;;;;5.70;3.80;;;12.90;99.90;;;;;;5092592;28;20211;-75
2022/09/03 06:04:19;;;;;;;3.37;2.80;;;13.00;99.90;;;;;;5093419;28;20277;-77
2022/09/03 06:06:48;;;;;;;3.80;2.63;;;13.10;99.90;;;;;;5093101;28;20238;-78
2022/09/03 06:09:18;;;;;;;4.23;2.70;;;13.30;99.90;;;;;;5092458;28;20206;-76
2022/09/03 06:11:49;;;;;;;5.20;2.90;;;13.60;99.90;;;;;;5092806;28;20276;-78
2022/09/03 06:14:20;;;;;;;5.10;2.67;;;13.90;99.90;;;;;;5092522;28;20205;-75
2022/09/03 06:16:51;;;;;;;4.23;2.80;;;14.10;99.90;;;;;;5093021;28;20230;-77
2022/09/03 06:19:20;;;;;;;3.33;2.53;;;14.30;99.90;;;;;;5092634;28;20219;-78
2022/09/03 06:21:49;;;;;;;3.87;2.50;;;14.40;99.90;;;;;;5093038;28;20246;-79
2022/09/03 06:24:20;;;;;;;3.07;2.33;;;14.50;99.90;;;;;;5092663;28;20337;-76
2022/09/03 06:26:54;;;;;;;4.23;2.73;;;14.40;99.90;;;;;;5093123;28;20609;-75
2022/09/03 06:29:23;;;;;;;3.97;2.63;;;14.50;99.90;;;;;;5092355;28;20215;-75
2022/09/03 06:31:51;;;;;;;4.67;2.30;;;14.70;99.90;;;;;;5092739;28;20294;-77
2022/09/03 06:34:24;;;;;;;4.90;2.70;;;14.80;99.90;;;;;;5092663;28;20211;-76
2022/09/03 06:36:52;;;;;;;4.67;2.60;;;15.10;99.90;;;;;;5092606;28;20218;-77
2022/09/03 06:39:25;;;;;;;6.53;2.60;;;15.10;99.90;;;;;;5092269;28;20653;-77
2022/09/03 06:41:58;;;;;;;5.40;2.70;;;15.20;99.90;;;;;;5092624;28;20202;-76
2022/09/03 06:44:26;;;;;;;5.70;2.70;;;15.30;99.90;;;;;;5092282;28;20211;-77
2022/09/03 06:46:54;;;;;;;3.97;2.40;;;15.30;99.90;;;;;;5092367;28;20263;-77
2022/09/03 06:49:25;;;;;;;5.53;2.60;;;15.20;99.90;;;;;;5091795;28;20284;-78
2022/09/03 06:51:53;;;;;;;2.83;2.40;;;15.10;99.90;;;;;;5092040;28;20242;-78
2022/09/03 06:54:24;;;;;;;4.47;2.70;;;15.10;99.90;;;;;;5092487;28;20206;-77
2022/09/03 06:56:52;;;;;;;3.43;2.70;;;15.20;99.90;;;;;;5092147;28;20302;-78
2022/09/03 06:59:22;;;;;;;4.63;2.70;;;15.30;99.90;;;;;;5092313;28;20210;-76
2022/09/03 07:01:50;;;;;;;4.57;2.97;;;15.30;99.90;;;;;;5092932;28;20242;-77
2022/09/03 07:04:18;;;;;;;3.57;2.70;;;15.20;99.90;;;;;;5093046;28;20238;-77
2022/09/03 07:06:48;;;;;;;4.77;2.83;;;15.20;99.90;;;;;;5094227;28;20211;-76
2022/09/03 07:09:19;;;;;;;3.93;2.83;;;15.20;99.90;;;;;;5097693;28;20260;-75
2022/09/03 07:11:48;;;;;;;6.60;3.03;;;15.00;99.90;;;;;;5093392;28;20321;-78
2022/09/03 07:14:17;;;;;;;5.83;2.93;;;14.90;99.90;;;;;;5096543;28;20213;-77
2022/09/03 07:16:48;;;;;;;3.40;2.93;;;14.70;99.90;;;;;;5092046;28;20743;-77
2022/09/03 07:19:17;;;;;;;6.03;2.80;;;14.80;99.90;;;;;;5085432;28;20290;-78
2022/09/03 07:21:48;;;;;;;6.20;2.80;;;14.80;99.90;;;;;;5092179;28;20285;-77
2022/09/03 07:24:20;;;;;;;5.00;2.80;;;14.80;99.90;;;;;;5091682;28;20235;-77
2022/09/03 07:26:49;;;;;;;6.37;2.87;;;14.70;99.90;;;;;;5091632;28;20194;-77
2022/09/03 07:29:18;;;;;;;6.13;3.57;;;14.80;99.90;;;;;;5091326;28;20778;-77
2022/09/03 07:31:51;;;;;;;4.90;3.20;;;15.00;99.90;;;;;;5091991;28;20261;-78
2022/09/03 07:34:22;;;;;;;4.23;2.90;;;15.00;99.90;;;;;;5092345;28;20216;-77
2022/09/03 07:36:52;;;;;;;3.80;2.93;;;15.10;99.90;;;;;;5091968;28;20191;-75
2022/09/03 07:39:21;;;;;;;5.57;3.23;;;15.40;99.90;;;;;;5091833;28;20234;-79
2022/09/03 07:41:49;;;;;;;5.57;3.03;;;15.50;99.90;;;;;;5092148;28;20612;-77
2022/09/03 07:44:19;;;;;;;3.53;2.90;;;15.50;99.90;;;;;;5092353;28;20234;-76
2022/09/03 07:46:50;;;;;;;4.23;2.80;;;15.50;99.90;;;;;;5092474;28;20290;-79
2022/09/03 07:49:21;;;;;;;5.13;3.23;;;15.60;99.90;;;;;;5092726;28;20195;-79
2022/09/03 07:51:52;;;;;;;3.57;3.10;;;15.60;99.90;;;;;;5092945;28;20227;-77
2022/09/03 07:54:22;;;;;;;3.40;2.93;;;15.50;99.90;;;;;;5093219;28;20218;-77
2022/09/03 07:56:50;;;;;;;5.30;3.20;;;15.60;99.90;;;;;;5093455;28;20234;-78
2022/09/03 07:59:20;;;;;;;7.93;3.00;;;15.60;99.90;;;;;;5101582;28;20222;-77
2022/09/03 08:01:49;;;;;;;7.67;3.30;;;15.70;99.90;;;;;;5095030;28;20253;-79
2022/09/03 08:04:20;;;;;;;10.03;3.50;;;15.90;99.90;;;;;;5090809;28;20254;-78
2022/09/03 08:06:48;;;;;;;4.77;3.00;;;16.10;99.90;;;;;;5090987;28;20748;-78
2022/09/03 08:09:16;;;;;;;6.07;3.10;;;16.30;99.90;;;;;;5090836;28;20215;-77
2022/09/03 08:11:44;;;;;;;4.93;3.10;;;16.20;99.90;;;;;;5091119;28;20321;-77
2022/09/03 08:14:15;;;;;;;5.87;3.30;;;16.00;99.90;;;;;;5090909;28;20272;-77
2022/09/03 08:16:46;;;;;;;5.23;3.50;;;16.00;99.90;;;;;;5091551;28;20207;-76
2022/09/03 08:19:18;;;;;;;5.10;3.53;;;16.00;99.90;;;;;;5091896;28;20219;-78
2022/09/03 08:21:46;;;;;;;5.80;3.50;;;15.90;99.90;;;;;;5095174;28;20245;-77
2022/09/03 08:24:19;;;;;;;5.77;3.40;;;15.80;99.90;;;;;;5094847;28;20297;-77
2022/09/03 08:26:49;;;;;;;9.00;3.60;;;15.70;99.90;;;;;;5094957;28;20206;-79
2022/09/03 08:29:20;;;;;;;6.13;3.83;;;15.60;99.90;;;;;;5094554;28;20248;-79
2022/09/03 08:31:48;;;;;;;4.87;3.53;;;15.70;99.90;;;;;;5094592;28;20211;-77
2022/09/03 08:34:18;;;;;;;5.57;3.43;;;15.80;99.90;;;;;;5095159;28;20215;-79
2022/09/03 08:36:49;;;;;;;6.83;3.30;;;15.80;99.90;;;;;;5095069;28;20271;-78
2022/09/03 08:39:18;;;;;;;4.47;3.57;;;15.80;99.90;;;;;;5094769;28;20211;-78
2022/09/03 08:42:19;;;;;;;4.33;3.17;;;15.80;99.90;;;;;;5094660;28;20207;-79
2022/09/03 08:44:57;;;;;;;4.47;3.50;;;16.00;99.90;;;;;;5094758;28;20209;-78
2022/09/03 08:47:32;;;;;;;5.93;2.93;;;16.10;99.90;;;;;;5094743;28;20218;-79
2022/09/03 08:50:07;;;;;;;7.50;3.67;;;16.10;99.90;;;;;;5094548;28;20218;-77
2022/09/03 08:52:40;;;;;;;5.03;3.20;;;16.20;99.90;;;;;;5094442;28;20234;-78
2022/09/03 08:55:19;;;;;;;4.97;3.30;;;16.60;99.90;;;;;;5094577;28;20627;-77
2022/09/03 08:57:52;;;;;;;4.13;3.53;;;17.10;99.90;;;;;;5094622;28;20229;-78
2022/09/03 09:00:22;;;;;;;5.93;3.30;;;17.30;99.90;;;;;;5094261;28;20213;-76
2022/09/03 09:03:32;;;;;;;4.00;2.97;;;17.60;99.90;;;;;;5097523;28;20213;-78
2022/09/03 09:06:12;;;;;;;3.57;2.90;;;17.90;99.90;;;;;;5093000;28;20211;-75
2022/09/03 09:08:54;;;;;;;6.40;3.00;;;17.90;99.90;;;;;;5097460;28;20680;-77
2022/09/03 09:11:36;;;;;;;4.73;2.80;;;17.90;99.90;;;;;;5094655;28;20685;-77
2022/09/03 09:14:12;;;;;;;6.50;3.70;;;18.00;99.90;;;;;;5094125;28;20257;-76
2022/09/03 09:16:57;;;;;;;3.97;3.07;;;18.10;99.90;;;;;;5094564;28;20210;-76
2022/09/03 09:19:37;;;;;;;4.20;3.20;;;18.20;99.90;;;;;;5094385;28;20283;-76
2022/09/03 09:22:12;;;;;;;4.53;3.37;;;18.40;99.90;;;;;;5094651;28;20219;-77
2022/09/03 09:24:45;;;;;;;5.27;2.90;;;18.40;99.90;;;;;;5094637;28;20199;-76
2022/09/03 09:27:16;;;;;;;6.60;2.77;;;18.60;99.90;;;;;;5094998;28;20274;-78
2022/09/03 09:29:49;;;;;;;6.63;3.07;;;18.90;99.90;;;;;;5093955;28;20226;-76
2022/09/03 09:32:20;;;;;;;7.37;2.87;;;19.40;99.90;;;;;;5093183;28;20230;-77
2022/09/03 09:34:50;;;;;;;6.23;2.80;;;20.10;99.90;;;;;;5094182;28;20207;-77
2022/09/03 09:37:21;;;;;;;4.63;2.87;;;21.30;99.90;;;;;;5093633;28;20214;-76
2022/09/03 09:39:58;;;;;;;4.20;2.80;;;21.80;99.90;;;;;;5094438;28;20206;-77
2022/09/03 09:42:29;;;;;;;5.73;2.90;;;21.70;99.90;;;;;;5095495;28;20214;-77
2022/09/03 09:45:08;;;;;;;3.17;2.67;;;21.60;99.90;;;;;;5095092;28;20211;-77
2022/09/03 09:47:41;;;;;;;4.93;2.70;;;21.80;99.90;;;;;;5081566;28;20294;-77
2022/09/03 09:50:20;;;;;;;3.77;2.77;;;22.00;99.90;;;;;;5094917;28;20286;-78
2022/09/03 09:53:07;;;;;;;4.20;2.57;;;22.90;99.90;;;;;;5086313;28;20215;-78
2022/09/03 09:55:48;;;;;;;4.85;2.72;;;23.90;99.90;;;;;;5076437;28;20586;-77
2022/09/03 09:58:22;;;;;;;2.95;2.53;;;24.10;99.90;;;;;;5075115;28;20227;-77
2022/09/03 10:01:14;;;;;;;4.53;2.30;;;24.70;99.90;;;;;;5074896;28;20290;-80
2022/09/03 10:03:51;;;;;;;3.67;2.58;;;25.00;99.90;;;;;;5073648;28;20280;-77
2022/09/03 10:09:14;;;;;;;3.88;2.47;;;26.30;99.90;;;;;;5072930;28;20349;-77
2022/09/03 10:11:46;;;;;;;4.75;2.40;;;25.20;99.90;;;;;;5073495;28;20230;-79
2022/09/03 10:14:23;;;;;;;2.83;2.40;;;26.30;99.90;;;;;;5081146;28;20267;-78
2022/09/03 10:17:01;;;;;;;4.60;3.05;;;26.40;99.90;;;;;;5074356;28;20196;-77
2022/09/03 10:19:39;;;;;;;3.20;2.90;;;26.00;99.90;;;;;;5073863;28;20207;-78
2022/09/03 10:22:11;;;;;;;4.72;2.97;;;24.90;99.90;;;;;;5073951;28;20207;-78
2022/09/03 10:24:53;;;;;;;4.32;2.83;;;23.60;99.90;;;;;;5072838;28;20215;-77
2022/09/03 10:27:22;;;;;;;4.20;2.80;;;22.70;99.90;;;;;;5073588;28;20206;-78
2022/09/03 10:29:52;;;;;;;3.60;2.90;;;22.60;99.90;;;;;;5073008;28;20235;-79
2022/09/03 10:32:35;;;;;;;4.33;2.90;;;22.10;99.90;;;;;;5073450;28;20640;-78
2022/09/03 10:35:19;;;;;;;4.90;3.20;;;21.70;99.90;;;;;;5072554;28;20246;-78
2022/09/03 10:37:55;;;;;;;6.40;3.20;;;21.50;99.90;;;;;;5072169;28;20188;-77
2022/09/03 10:40:35;;;;;;;4.67;3.60;;;21.40;99.90;;;;;;5071959;28;20202;-76
2022/09/03 10:43:21;;;;;;;4.67;3.20;;;21.00;99.90;;;;;;5073611;28;20289;-77
2022/09/03 10:46:04;;;;;;;6.13;3.07;;;21.20;99.90;;;;;;5073612;28;20208;-78
2022/09/03 10:48:49;;;;;;;7.87;3.50;;;21.30;99.90;;;;;;5072591;28;20218;-78
2022/09/03 10:51:20;;;;;;;4.87;3.37;;;21.50;99.90;;;;;;5072137;28;20188;-76
2022/09/03 10:54:21;;;;;;;4.77;3.23;;;21.80;99.90;;;;;;5090947;28;20291;-78
2022/09/03 10:57:02;;;;;;;8.83;3.13;;;21.90;99.90;;;;;;5082313;28;20210;-77
2022/09/03 10:59:50;;;;;;;4.57;3.00;;;22.10;99.90;;;;;;5092286;28;20221;-78
2022/09/03 11:02:34;;;;;;;3.80;3.40;;;22.50;99.90;;;;;;5092056;28;20244;-78
2022/09/03 11:05:07;;;;;;;5.43;3.17;;;22.80;99.90;;;;;;5092527;28;20210;-77
2022/09/03 11:07:40;;;;;;;5.17;3.10;;;22.70;99.90;;;;;;5092776;28;20207;-76
2022/09/03 11:10:17;;;;;;;3.20;2.90;;;22.60;99.90;;;;;;5091887;28;20191;-77
2022/09/03 11:12:55;;;;;;;4.77;2.73;;;22.90;99.90;;;;;;5092307;28;20237;-77
2022/09/03 11:15:28;;;;;;;4.63;2.90;;;23.20;99.90;;;;;;5092315;28;20589;-78
2022/09/03 11:18:02;;;;;;;3.40;3.10;;;23.20;99.90;;;;;;5091953;28;20756;-77
2022/09/03 11:20:32;;;;;;;4.20;3.40;;;23.40;99.90;;;;;;5091933;28;20671;-79
2022/09/03 11:23:04;;;;;;;4.10;3.70;;;23.80;99.90;;;;;;5093075;28;20280;-79
2022/09/03 11:25:43;;;;;;;6.57;2.97;;;24.10;99.90;;;;;;5093291;28;20206;-78
2022/09/03 11:28:28;;;;;;;4.60;2.67;;;24.70;99.90;;;;;;5097196;28;20245;-77
2022/09/03 11:31:17;;;;;;;4.03;3.10;;;24.90;99.90;;;;;;5095417;28;20227;-77
2022/09/03 11:33:52;;;;;;;5.60;3.17;;;24.20;99.90;;;;;;5097266;28;20288;-77
2022/09/03 11:36:31;;;;;;;4.13;3.20;;;24.40;99.90;;;;;;5094562;28;20577;-77
2022/09/03 11:39:01;;;;;;;5.40;3.30;;;24.90;99.90;;;;;;5092840;28;20206;-77
2022/09/03 11:41:35;;;;;;;4.53;3.00;;;25.30;99.90;;;;;;5093046;28;20309;-76
2022/09/03 11:44:18;;;;;;;5.40;2.90;;;25.50;99.90;;;;;;5098192;28;20571;-78
2022/09/03 11:47:01;;;;;;;4.97;2.80;;;25.40;99.90;;;;;;5094446;28;20289;-78
2022/09/03 11:49:45;;;;;;;3.13;2.57;;;25.30;99.90;;;;;;5097455;28;20222;-76
2022/09/03 11:52:25;;;;;;;4.77;2.80;;;25.30;99.90;;;;;;5093512;28;20264;-78
2022/09/03 11:54:53;;;;;;;3.27;2.80;;;24.80;99.90;;;;;;5094248;28;20194;-77
2022/09/03 11:57:27;;;;;;;3.20;2.90;;;24.50;99.90;;;;;;5098630;28;20303;-77
2022/09/03 12:00:10;;;;;;;6.17;3.20;;;24.50;99.90;;;;;;5095860;28;20214;-78
2022/09/03 12:02:45;;;;;;;3.60;2.63;;;24.60;99.90;;;;;;5096187;28;20219;-78
2022/09/03 12:05:24;;;;;;;3.20;2.07;;;24.70;99.90;;;;;;5099416;28;20226;-78
2022/09/03 12:08:31;;;;;;;2.87;2.40;;;24.30;99.90;;;;;;5096754;28;20269;-78
2022/09/03 12:11:12;;;;;;;3.00;2.40;;;24.30;99.90;;;;;;5078184;28;20210;-76
2022/09/03 12:13:54;;;;;;;3.03;2.63;;;24.10;99.90;;;;;;5095438;28;20305;-78
2022/09/03 12:16:39;;;;;;;7.37;2.50;;;24.00;99.90;;;;;;5095129;28;20192;-76
2022/09/03 12:19:19;;;;;;;2.70;2.30;;;23.70;99.90;;;;;;5095391;28;20202;-77
2022/09/03 12:21:49;;;;;;;3.53;2.57;;;23.80;99.90;;;;;;5095356;28;20206;-77
2022/09/03 12:24:19;;;;;;;3.70;2.40;;;23.70;99.90;;;;;;5088641;28;20701;-77
2022/09/03 12:26:52;;;;;;;3.13;2.30;;;23.90;99.90;;;;;;5094894;28;20660;-77
2022/09/03 12:29:24;;;;;;;3.87;2.23;;;23.80;99.90;;;;;;5094654;28;20230;-75
2022/09/03 12:32:08;;;;;;;2.60;2.07;;;23.80;99.90;;;;;;5094887;28;20195;-76
2022/09/03 12:34:37;;;;;;;5.13;2.17;;;24.00;99.90;;;;;;5094876;28;20257;-77
2022/09/03 12:37:22;;;;;;;1.90;1.80;;;23.90;99.90;;;;;;5095080;28;20289;-77
2022/09/03 12:40:20;;;;;;;2.97;2.10;;;24.00;99.90;;;;;;5094386;28;20209;-77
2022/09/03 12:42:49;;;;;;;2.10;1.90;;;24.10;99.90;;;;;;5094779;28;20738;-76
2022/09/03 12:45:21;;;;;;;4.67;2.00;;;24.40;99.90;;;;;;5094761;28;20210;-77
2022/09/03 12:47:52;;;;;;;2.27;1.80;;;24.70;99.90;;;;;;5094987;28;20282;-77
2022/09/03 12:50:23;;;;;;;6.33;2.13;;;25.00;99.90;;;;;;5094450;28;20235;-78
2022/09/03 12:52:55;;;;;;;2.93;1.90;;;24.80;99.90;;;;;;5094352;28;20211;-75
2022/09/03 12:55:32;;;;;;;4.00;2.00;;;24.40;99.90;;;;;;5094721;28;20198;-77
2022/09/03 12:58:07;;;;;;;2.63;2.00;;;24.50;99.90;;;;;;5094667;28;20312;-76
2022/09/03 13:00:45;;;;;;;3.63;1.93;;;25.10;99.90;;;;;;5094374;28;20191;-77
2022/09/03 13:03:21;;;;;;;3.43;1.97;;;25.30;99.90;;;;;;5094229;28;20241;-76
2022/09/03 13:05:55;;;;;;;2.53;1.90;;;25.20;99.90;;;;;;5093175;28;20585;-78
2022/09/03 13:08:26;;;;;;;2.43;2.10;;;25.20;99.90;;;;;;5094426;28;20226;-78
2022/09/03 13:10:56;;;;;;;1.90;1.80;;;25.20;99.90;;;;;;5093921;28;20616;-75
2022/09/03 13:13:26;;;;;;;2.33;1.80;;;25.30;99.90;;;;;;5094128;28;20328;-79
2022/09/03 13:16:23;;;;;;;3.70;1.90;;;25.20;99.90;;;;;;5088241;28;20287;-76
2022/09/03 13:19:02;;;;;;;4.13;1.90;;;24.90;99.90;;;;;;5079010;28;20200;-76
2022/09/03 13:21:42;;;;;;;2.17;1.70;;;25.00;99.90;;;;;;5073477;28;20262;-77
2022/09/03 13:24:28;;;;;;;2.53;2.00;;;25.20;99.90;;;;;;5073071;28;20309;-78
2022/09/03 13:27:07;;;;;;;1.83;1.60;;;25.20;99.90;;;;;;5073759;28;20649;-77